sensor_id;sensor_type;location;lat;lon;timestamp;temperature;humidity
11820;DHT22;5967;48.944;9.240;2022-07-03T00:00:56;17.80;99.90
11820;DHT22;5967;48.944;9.240;2022-07-03T00:03:22;17.80;99.90
11820;DHT22;5967;48.944;9.240;2022-07-03T00:05:47;17.80;99.90
11820;DHT22;5967;48.944;9.240;2022-07-03T00:08:13;17.80;99.90
11820;DHT22;5967;48.944;9.240;2022-07-03T00:10:39;17.80;99.90
11820;DHT22;5967;48.944;9.240;2022-07-03T00:13:05;17.80;99.90
11820;DHT22;5967;48.944;9.240;2022-07-03T00:15:30;17.80;99.90
11820;DHT22;5967;48.944;9.240;2022-07-03T00:17:56;17.80;99.90
11820;DHT22;5967;48.944;9.240;2022-07-03T00:20:23;17.80;99.90
11820;DHT22;5967;48.944;9.240;2022-07-03T00:22:51;17.80;99.90
11820;DHT22;5967;48.944;9.240;2022-07-03T00:25:18;17.80;99.90
11820;DHT22;5967;48.944;9.240;2022-07-03T00:27:48;17.70;99.90
11820;DHT22;5967;48.944;9.240;2022-07-03T00:30:15;17.70;99.90
11820;DHT22;5967;48.944;9.240;2022-07-03T00:32:41;17.70;99.90
11820;DHT22;5967;48.944;9.240;2022-07-03T00:35:08;17.70;99.90
11820;DHT22;5967;48.944;9.240;2022-07-03T00:37:34;17.60;99.90
11820;DHT22;5967;48.944;9.240;2022-07-03T00:40:00;17.50;99.90
11820;DHT22;5967;48.944;9.240;2022-07-03T00:42:27;17.50;99.90
11820;DHT22;5967;48.944;9.240;2022-07-03T00:44:56;17.40;99.90
11820;DHT22;5967;48.944;9.240;2022-07-03T00:47:24;17.40;99.90
11820;DHT22;5967;48.944;9.240;2022-07-03T00:49:53;17.30;99.90
11820;DHT22;5967;48.944;9.240;2022-07-03T00:52:21;17.40;99.90
11820;DHT22;5967;48.944;9.240;2022-07-03T00:54:58;17.30;99.90
11820;DHT22;5967;48.944;9.240;2022-07-03T00:57:26;17.30;99.90
11820;DHT22;5967;48.944;9.240;2022-07-03T00:59:52;17.20;99.90
11820;DHT22;5967;48.944;9.240;2022-07-03T01:02:29;17.20;99.90
11820;DHT22;5967;48.944;9.240;2022-07-03T01:05:23;17.10;99.90
11820;DHT22;5967;48.944;9.240;2022-07-03T01:18:49;17.00;99.90
11820;DHT22;5967;48.944;9.240;2022-07-03T01:27:39;16.90;99.90
11820;DHT22;5967;48.944;9.240;2022-07-03T01:30:10;16.90;99.90
11820;DHT22;5967;48.944;9.240;2022-07-03T01:32:46;16.80;99.90
11820;DHT22;5967;48.944;9.240;2022-07-03T01:35:15;16.80;99.90
11820;DHT22;5967;48.944;9.240;2022-07-03T01:37:46;16.80;99.90
11820;DHT22;5967;48.944;9.240;2022-07-03T01:40:14;16.80;99.90
11820;DHT22;5967;48.944;9.240;2022-07-03T01:42:42;16.80;99.90
11820;DHT22;5967;48.944;9.240;2022-07-03T01:45:12;16.80;99.90
11820;DHT22;5967;48.944;9.240;2022-07-03T01:47:42;16.80;99.90
11820;DHT22;5967;48.944;9.240;2022-07-03T01:50:12;16.70;99.90
11820;DHT22;5967;48.944;9.240;2022-07-03T01:52:41;16.70;99.90
11820;DHT22;5967;48.944;9.240;2022-07-03T01:55:08;16.70;99.90
11820;DHT22;5967;48.944;9.240;2022-07-03T02:00:07;16.70;99.90
11820;DHT22;5967;48.944;9.240;2022-07-03T02:02:34;16.70;99.90
11820;DHT22;5967;48.944;9.240;2022-07-03T02:05:18;16.70;99.90
11820;DHT22;5967;48.944;9.240;2022-07-03T02:10:41;16.70;99.90
11820;DHT22;5967;48.944;9.240;2022-07-03T02:13:17;16.70;99.90
11820;DHT22;5967;48.944;9.240;2022-07-03T02:15:49;16.70;99.90
11820;DHT22;5967;48.944;9.240;2022-07-03T02:18:28;16.70;99.90
11820;DHT22;5967;48.944;9.240;2022-07-03T02:23:30;16.60;99.90
11820;DHT22;5967;48.944;9.240;2022-07-03T02:25:59;16.60;99.90
11820;DHT22;5967;48.944;9.240;2022-07-03T02:28:54;16.60;99.90
11820;DHT22;5967;48.944;9.240;2022-07-03T02:31:21;16.50;99.90
11820;DHT22;5967;48.944;9.240;2022-07-03T02:33:51;16.50;99.90
11820;DHT22;5967;48.944;9.240;2022-07-03T02:36:20;16.50;99.90
11820;DHT22;5967;48.944;9.240;2022-07-03T02:38:53;16.40;99.90
11820;DHT22;5967;48.944;9.240;2022-07-03T02:41:39;16.40;99.90
11820;DHT22;5967;48.944;9.240;2022-07-03T02:44:16;16.40;99.90
11820;DHT22;5967;48.944;9.240;2022-07-03T02:46:54;16.40;99.90
11820;DHT22;5967;48.944;9.240;2022-07-03T02:52:32;16.30;99.90
11820;DHT22;5967;48.944;9.240;2022-07-03T02:55:07;16.20;99.90
11820;DHT22;5967;48.944;9.240;2022-07-03T02:57:38;16.20;99.90
11820;DHT22;5967;48.944;9.240;2022-07-03T03:00:06;16.10;99.90
11820;DHT22;5967;48.944;9.240;2022-07-03T03:02:54;16.10;99.90
11820;DHT22;5967;48.944;9.240;2022-07-03T03:10:50;16.00;99.90
11820;DHT22;5967;48.944;9.240;2022-07-03T03:13:18;15.90;99.90
11820;DHT22;5967;48.944;9.240;2022-07-03T03:16:07;15.90;99.90
11820;DHT22;5967;48.944;9.240;2022-07-03T03:18:35;15.90;99.90
11820;DHT22;5967;48.944;9.240;2022-07-03T03:21:04;15.80;99.90
11820;DHT22;5967;48.944;9.240;2022-07-03T03:23:45;15.80;99.90
11820;DHT22;5967;48.944;9.240;2022-07-03T03:26:14;15.80;99.90
11820;DHT22;5967;48.944;9.240;2022-07-03T03:28:40;15.90;99.90
11820;DHT22;5967;48.944;9.240;2022-07-03T03:31:07;15.90;99.90
11820;DHT22;5967;48.944;9.240;2022-07-03T03:33:42;15.90;99.90
11820;DHT22;5967;48.944;9.240;2022-07-03T03:36:09;15.90;99.90
11820;DHT22;5967;48.944;9.240;2022-07-03T03:38:37;15.90;99.90
11820;DHT22;5967;48.944;9.240;2022-07-03T03:41:04;16.00;99.90
11820;DHT22;5967;48.944;9.240;2022-07-03T03:43:30;16.00;99.90
11820;DHT22;5967;48.944;9.240;2022-07-03T03:45:56;16.10;99.90
11820;DHT22;5967;48.944;9.240;2022-07-03T03:48:22;16.10;99.90
11820;DHT22;5967;48.944;9.240;2022-07-03T03:50:48;16.10;99.90
11820;DHT22;5967;48.944;9.240;2022-07-03T03:53:14;16.20;99.90
11820;DHT22;5967;48.944;9.240;2022-07-03T03:58:19;16.30;99.90
11820;DHT22;5967;48.944;9.240;2022-07-03T04:00:44;16.30;99.90
11820;DHT22;5967;48.944;9.240;2022-07-03T04:03:10;16.30;99.90
11820;DHT22;5967;48.944;9.240;2022-07-03T04:05:36;16.40;99.90
11820;DHT22;5967;48.944;9.240;2022-07-03T04:08:01;16.40;99.90
11820;DHT22;5967;48.944;9.240;2022-07-03T04:10:27;16.50;99.90
11820;DHT22;5967;48.944;9.240;2022-07-03T04:12:52;16.60;99.90
11820;DHT22;5967;48.944;9.240;2022-07-03T04:15:18;16.60;99.90
11820;DHT22;5967;48.944;9.240;2022-07-03T04:17:44;16.70;99.90
11820;DHT22;5967;48.944;9.240;2022-07-03T04:20:09;16.70;99.90
11820;DHT22;5967;48.944;9.240;2022-07-03T04:22:35;16.70;99.90
11820;DHT22;5967;48.944;9.240;2022-07-03T04:25:01;16.80;99.90
11820;DHT22;5967;48.944;9.240;2022-07-03T04:27:26;16.90;99.90
11820;DHT22;5967;48.944;9.240;2022-07-03T04:29:52;16.90;99.90
11820;DHT22;5967;48.944;9.240;2022-07-03T04:32:18;17.10;99.90
11820;DHT22;5967;48.944;9.240;2022-07-03T04:34:43;17.20;99.90
11820;DHT22;5967;48.944;9.240;2022-07-03T04:37:09;17.30;99.90
11820;DHT22;5967;48.944;9.240;2022-07-03T04:39:35;17.40;99.90
11820;DHT22;5967;48.944;9.240;2022-07-03T04:42:03;17.40;99.90
11820;DHT22;5967;48.944;9.240;2022-07-03T04:44:29;17.50;99.90
11820;DHT22;5967;48.944;9.240;2022-07-03T04:46:54;17.60;99.90
11820;DHT22;5967;48.944;9.240;2022-07-03T04:49:23;17.70;99.90
11820;DHT22;5967;48.944;9.240;2022-07-03T04:51:51;17.80;99.90
11820;DHT22;5967;48.944;9.240;2022-07-03T04:54:18;17.80;99.90
11820;DHT22;5967;48.944;9.240;2022-07-03T04:56:44;17.90;99.90
11820;DHT22;5967;48.944;9.240;2022-07-03T04:59:10;18.00;99.90
11820;DHT22;5967;48.944;9.240;2022-07-03T05:01:35;18.10;99.90
11820;DHT22;5967;48.944;9.240;2022-07-03T05:04:01;18.20;99.90
11820;DHT22;5967;48.944;9.240;2022-07-03T05:06:26;18.20;99.90
11820;DHT22;5967;48.944;9.240;2022-07-03T05:08:52;18.30;99.90
11820;DHT22;5967;48.944;9.240;2022-07-03T05:11:18;18.40;99.90
11820;DHT22;5967;48.944;9.240;2022-07-03T05:13:43;18.50;99.90
11820;DHT22;5967;48.944;9.240;2022-07-03T05:16:09;18.50;99.90
11820;DHT22;5967;48.944;9.240;2022-07-03T05:18:34;18.70;99.90
11820;DHT22;5967;48.944;9.240;2022-07-03T05:21:01;18.90;99.90
11820;DHT22;5967;48.944;9.240;2022-07-03T05:23:27;19.00;99.90
11820;DHT22;5967;48.944;9.240;2022-07-03T05:25:52;19.30;99.90
11820;DHT22;5967;48.944;9.240;2022-07-03T05:28:18;19.60;99.90
11820;DHT22;5967;48.944;9.240;2022-07-03T05:30:44;20.00;99.90
11820;DHT22;5967;48.944;9.240;2022-07-03T05:33:09;20.60;99.90
11820;DHT22;5967;48.944;9.240;2022-07-03T05:35:35;21.00;99.90
11820;DHT22;5967;48.944;9.240;2022-07-03T05:38:01;21.40;99.90
11820;DHT22;5967;48.944;9.240;2022-07-03T05:40:26;21.90;99.90
11820;DHT22;5967;48.944;9.240;2022-07-03T05:42:52;22.80;99.90
11820;DHT22;5967;48.944;9.240;2022-07-03T05:45:18;23.70;99.90
11820;DHT22;5967;48.944;9.240;2022-07-03T05:47:44;24.30;99.90
11820;DHT22;5967;48.944;9.240;2022-07-03T05:50:10;24.50;99.90
11820;DHT22;5967;48.944;9.240;2022-07-03T05:52:36;24.50;99.90
11820;DHT22;5967;48.944;9.240;2022-07-03T05:55:02;24.20;99.90
11820;DHT22;5967;48.944;9.240;2022-07-03T05:57:28;23.60;99.90
11820;DHT22;5967;48.944;9.240;2022-07-03T05:59:54;23.00;99.90
11820;DHT22;5967;48.944;9.240;2022-07-03T06:02:19;22.50;99.90
11820;DHT22;5967;48.944;9.240;2022-07-03T06:04:45;22.00;99.90
11820;DHT22;5967;48.944;9.240;2022-07-03T06:07:11;21.80;99.90
11820;DHT22;5967;48.944;9.240;2022-07-03T06:09:36;21.60;99.90
11820;DHT22;5967;48.944;9.240;2022-07-03T06:12:02;21.50;99.90
11820;DHT22;5967;48.944;9.240;2022-07-03T06:14:28;21.40;99.90
11820;DHT22;5967;48.944;9.240;2022-07-03T06:16:53;21.30;99.90
11820;DHT22;5967;48.944;9.240;2022-07-03T06:19:19;21.30;99.90
11820;DHT22;5967;48.944;9.240;2022-07-03T06:21:45;21.30;99.90
11820;DHT22;5967;48.944;9.240;2022-07-03T06:24:10;21.20;99.90
11820;DHT22;5967;48.944;9.240;2022-07-03T06:26:36;21.20;99.90
11820;DHT22;5967;48.944;9.240;2022-07-03T06:29:02;21.20;99.90
11820;DHT22;5967;48.944;9.240;2022-07-03T06:31:27;21.20;99.90
11820;DHT22;5967;48.944;9.240;2022-07-03T06:33:53;21.30;99.90
11820;DHT22;5967;48.944;9.240;2022-07-03T06:36:19;21.30;99.90
11820;DHT22;5967;48.944;9.240;2022-07-03T06:38:44;21.20;99.90
11820;DHT22;5967;48.944;9.240;2022-07-03T06:41:10;21.30;99.90
11820;DHT22;5967;48.944;9.240;2022-07-03T06:43:35;21.30;99.90
11820;DHT22;5967;48.944;9.240;2022-07-03T06:46:01;21.30;99.90
11820;DHT22;5967;48.944;9.240;2022-07-03T06:48:27;21.30;99.90
11820;DHT22;5967;48.944;9.240;2022-07-03T06:50:52;21.40;99.90
11820;DHT22;5967;48.944;9.240;2022-07-03T06:53:18;21.50;99.90
11820;DHT22;5967;48.944;9.240;2022-07-03T06:55:43;21.50;99.90
11820;DHT22;5967;48.944;9.240;2022-07-03T06:58:09;21.70;99.90
11820;DHT22;5967;48.944;9.240;2022-07-03T07:00:35;21.80;99.90
11820;DHT22;5967;48.944;9.240;2022-07-03T07:03:02;21.80;99.90
11820;DHT22;5967;48.944;9.240;2022-07-03T07:05:28;21.90;99.90
11820;DHT22;5967;48.944;9.240;2022-07-03T07:07:53;22.00;99.90
11820;DHT22;5967;48.944;9.240;2022-07-03T07:10:19;21.90;99.90
11820;DHT22;5967;48.944;9.240;2022-07-03T07:12:44;22.00;99.90
11820;DHT22;5967;48.944;9.240;2022-07-03T07:15:10;22.00;99.90
11820;DHT22;5967;48.944;9.240;2022-07-03T07:17:36;22.00;99.90
11820;DHT22;5967;48.944;9.240;2022-07-03T07:20:02;22.10;99.90
11820;DHT22;5967;48.944;9.240;2022-07-03T07:22:28;22.10;99.90
11820;DHT22;5967;48.944;9.240;2022-07-03T07:24:53;22.20;99.90
11820;DHT22;5967;48.944;9.240;2022-07-03T07:27:19;22.30;99.90
11820;DHT22;5967;48.944;9.240;2022-07-03T07:29:45;22.40;99.90
11820;DHT22;5967;48.944;9.240;2022-07-03T07:32:13;22.50;99.90
11820;DHT22;5967;48.944;9.240;2022-07-03T07:34:39;22.50;99.90
11820;DHT22;5967;48.944;9.240;2022-07-03T07:37:04;22.60;99.90
11820;DHT22;5967;48.944;9.240;2022-07-03T07:39:30;22.70;99.90
11820;DHT22;5967;48.944;9.240;2022-07-03T07:41:55;22.80;99.90
11820;DHT22;5967;48.944;9.240;2022-07-03T07:44:21;22.90;99.90
11820;DHT22;5967;48.944;9.240;2022-07-03T07:46:47;23.00;99.90
11820;DHT22;5967;48.944;9.240;2022-07-03T07:49:12;23.10;99.90
11820;DHT22;5967;48.944;9.240;2022-07-03T07:51:38;23.10;99.90
11820;DHT22;5967;48.944;9.240;2022-07-03T07:54:04;23.20;99.90
11820;DHT22;5967;48.944;9.240;2022-07-03T07:56:32;23.30;99.90
11820;DHT22;5967;48.944;9.240;2022-07-03T07:58:58;23.40;99.90
11820;DHT22;5967;48.944;9.240;2022-07-03T08:01:23;23.50;99.90
11820;DHT22;5967;48.944;9.240;2022-07-03T08:04:07;23.50;99.90
11820;DHT22;5967;48.944;9.240;2022-07-03T08:06:51;23.60;99.90
11820;DHT22;5967;48.944;9.240;2022-07-03T08:09:17;23.80;99.90
11820;DHT22;5967;48.944;9.240;2022-07-03T08:11:43;23.80;99.90
11820;DHT22;5967;48.944;9.240;2022-07-03T08:14:08;23.90;99.90
11820;DHT22;5967;48.944;9.240;2022-07-03T08:16:35;24.00;99.90
11820;DHT22;5967;48.944;9.240;2022-07-03T08:19:03;24.00;99.90
11820;DHT22;5967;48.944;9.240;2022-07-03T08:21:29;24.10;99.90
11820;DHT22;5967;48.944;9.240;2022-07-03T08:23:55;24.20;99.90
11820;DHT22;5967;48.944;9.240;2022-07-03T08:26:20;24.30;99.90
11820;DHT22;5967;48.944;9.240;2022-07-03T08:28:48;24.30;99.90
11820;DHT22;5967;48.944;9.240;2022-07-03T08:31:17;24.40;99.90
11820;DHT22;5967;48.944;9.240;2022-07-03T08:33:43;24.50;99.90
11820;DHT22;5967;48.944;9.240;2022-07-03T08:36:08;24.50;99.90
11820;DHT22;5967;48.944;9.240;2022-07-03T08:38:34;24.60;99.90
11820;DHT22;5967;48.944;9.240;2022-07-03T08:41:01;24.70;99.90
11820;DHT22;5967;48.944;9.240;2022-07-03T08:43:27;24.80;99.90
11820;DHT22;5967;48.944;9.240;2022-07-03T08:45:54;24.80;99.90
11820;DHT22;5967;48.944;9.240;2022-07-03T08:48:21;24.80;99.90
11820;DHT22;5967;48.944;9.240;2022-07-03T08:50:47;24.90;99.90
11820;DHT22;5967;48.944;9.240;2022-07-03T08:53:15;24.90;99.90
11820;DHT22;5967;48.944;9.240;2022-07-03T08:55:41;24.90;99.90
11820;DHT22;5967;48.944;9.240;2022-07-03T08:58:09;24.90;99.90
11820;DHT22;5967;48.944;9.240;2022-07-03T09:00:35;25.00;99.90
11820;DHT22;5967;48.944;9.240;2022-07-03T09:03:02;25.10;99.90
11820;DHT22;5967;48.944;9.240;2022-07-03T09:05:30;25.10;99.90
11820;DHT22;5967;48.944;9.240;2022-07-03T09:07:57;25.20;99.90
11820;DHT22;5967;48.944;9.240;2022-07-03T09:10:24;25.30;99.90
11820;DHT22;5967;48.944;9.240;2022-07-03T09:12:50;25.30;99.90
11820;DHT22;5967;48.944;9.240;2022-07-03T09:15:16;25.40;99.90
11820;DHT22;5967;48.944;9.240;2022-07-03T09:17:59;25.40;99.90
11820;DHT22;5967;48.944;9.240;2022-07-03T09:20:33;25.50;99.90
11820;DHT22;5967;48.944;9.240;2022-07-03T09:23:17;25.60;99.90
11820;DHT22;5967;48.944;9.240;2022-07-03T09:28:40;25.80;99.90
11820;DHT22;5967;48.944;9.240;2022-07-03T09:31:07;25.80;99.90
11820;DHT22;5967;48.944;9.240;2022-07-03T09:33:33;25.90;99.90
11820;DHT22;5967;48.944;9.240;2022-07-03T09:35:59;25.90;99.90
11820;DHT22;5967;48.944;9.240;2022-07-03T09:38:27;25.90;99.90
11820;DHT22;5967;48.944;9.240;2022-07-03T09:40:55;25.90;99.90
11820;DHT22;5967;48.944;9.240;2022-07-03T09:43:30;25.90;99.90
11820;DHT22;5967;48.944;9.240;2022-07-03T09:45:58;26.00;99.90
11820;DHT22;5967;48.944;9.240;2022-07-03T09:48:29;26.10;99.90
11820;DHT22;5967;48.944;9.240;2022-07-03T09:53:58;26.40;99.90
11820;DHT22;5967;48.944;9.240;2022-07-03T09:56:32;26.50;99.90
11820;DHT22;5967;48.944;9.240;2022-07-03T09:59:03;26.60;99.90
11820;DHT22;5967;48.944;9.240;2022-07-03T10:01:29;26.70;99.90
11820;DHT22;5967;48.944;9.240;2022-07-03T10:06:46;26.80;99.90
11820;DHT22;5967;48.944;9.240;2022-07-03T10:09:15;27.00;99.90
11820;DHT22;5967;48.944;9.240;2022-07-03T10:11:41;27.10;99.90
11820;DHT22;5967;48.944;9.240;2022-07-03T10:14:08;27.20;99.90
11820;DHT22;5967;48.944;9.240;2022-07-03T10:16:37;27.20;99.90
11820;DHT22;5967;48.944;9.240;2022-07-03T10:19:04;27.30;99.90
11820;DHT22;5967;48.944;9.240;2022-07-03T10:21:31;27.40;99.90
11820;DHT22;5967;48.944;9.240;2022-07-03T10:23:58;27.40;99.90
11820;DHT22;5967;48.944;9.240;2022-07-03T10:26:24;27.50;99.90
11820;DHT22;5967;48.944;9.240;2022-07-03T10:28:50;27.60;99.90
11820;DHT22;5967;48.944;9.240;2022-07-03T10:31:17;27.60;99.90
11820;DHT22;5967;48.944;9.240;2022-07-03T10:33:44;27.60;99.90
11820;DHT22;5967;48.944;9.240;2022-07-03T10:36:11;27.70;99.90
11820;DHT22;5967;48.944;9.240;2022-07-03T10:38:39;27.70;99.90
11820;DHT22;5967;48.944;9.240;2022-07-03T10:44:19;27.80;99.90
11820;DHT22;5967;48.944;9.240;2022-07-03T10:47:04;27.70;99.90
11820;DHT22;5967;48.944;9.240;2022-07-03T10:49:30;27.70;99.90
11820;DHT22;5967;48.944;9.240;2022-07-03T10:52:02;27.80;99.90
11820;DHT22;5967;48.944;9.240;2022-07-03T10:54:35;27.90;99.90
11820;DHT22;5967;48.944;9.240;2022-07-03T10:57:17;27.90;99.90
11820;DHT22;5967;48.944;9.240;2022-07-03T11:02:41;28.10;99.90
11820;DHT22;5967;48.944;9.240;2022-07-03T11:05:14;28.20;99.90
11820;DHT22;5967;48.944;9.240;2022-07-03T11:12:57;28.20;99.90
11820;DHT22;5967;48.944;9.240;2022-07-03T11:18:32;28.30;99.90
11820;DHT22;5967;48.944;9.240;2022-07-03T11:21:05;28.30;99.90
11820;DHT22;5967;48.944;9.240;2022-07-03T11:23:40;28.30;99.90
11820;DHT22;5967;48.944;9.240;2022-07-03T11:36:31;28.40;99.90
11820;DHT22;5967;48.944;9.240;2022-07-03T11:41:24;28.30;99.90
11820;DHT22;5967;48.944;9.240;2022-07-03T11:43:53;28.30;99.90
11820;DHT22;5967;48.944;9.240;2022-07-03T11:46:24;28.20;99.90
11820;DHT22;5967;48.944;9.240;2022-07-03T11:49:03;28.10;99.90
11820;DHT22;5967;48.944;9.240;2022-07-03T11:51:29;28.20;99.90
11820;DHT22;5967;48.944;9.240;2022-07-03T11:53:55;28.30;99.90
11820;DHT22;5967;48.944;9.240;2022-07-03T11:56:20;28.30;99.90
11820;DHT22;5967;48.944;9.240;2022-07-03T12:03:48;28.40;99.90
11820;DHT22;5967;48.944;9.240;2022-07-03T12:06:14;28.40;99.90
11820;DHT22;5967;48.944;9.240;2022-07-03T12:08:40;28.40;99.90
11820;DHT22;5967;48.944;9.240;2022-07-03T12:11:09;28.40;99.90
11820;DHT22;5967;48.944;9.240;2022-07-03T12:13:35;28.40;99.90
11820;DHT22;5967;48.944;9.240;2022-07-03T12:16:03;28.40;99.90
11820;DHT22;5967;48.944;9.240;2022-07-03T12:18:50;28.40;99.90
11820;DHT22;5967;48.944;9.240;2022-07-03T12:21:18;28.40;99.90
11820;DHT22;5967;48.944;9.240;2022-07-03T12:23:45;28.40;99.90
11820;DHT22;5967;48.944;9.240;2022-07-03T12:26:11;28.40;99.90
11820;DHT22;5967;48.944;9.240;2022-07-03T12:28:37;28.30;99.90
11820;DHT22;5967;48.944;9.240;2022-07-03T12:31:03;28.30;99.90
11820;DHT22;5967;48.944;9.240;2022-07-03T12:33:29;28.30;99.90
11820;DHT22;5967;48.944;9.240;2022-07-03T12:36:08;28.40;99.90
11820;DHT22;5967;48.944;9.240;2022-07-03T12:38:36;28.50;99.90
11820;DHT22;5967;48.944;9.240;2022-07-03T12:41:09;28.50;99.90
11820;DHT22;5967;48.944;9.240;2022-07-03T12:43:39;28.60;99.90
11820;DHT22;5967;48.944;9.240;2022-07-03T12:46:16;28.70;99.90
11820;DHT22;5967;48.944;9.240;2022-07-03T12:48:53;28.80;99.90
11820;DHT22;5967;48.944;9.240;2022-07-03T12:51:48;28.80;99.90
11820;DHT22;5967;48.944;9.240;2022-07-03T12:54:15;28.80;99.90
11820;DHT22;5967;48.944;9.240;2022-07-03T12:56:44;28.80;99.90
11820;DHT22;5967;48.944;9.240;2022-07-03T12:59:26;28.70;99.90
11820;DHT22;5967;48.944;9.240;2022-07-03T13:02:03;28.60;99.90
11820;DHT22;5967;48.944;9.240;2022-07-03T13:04:37;28.50;99.90
11820;DHT22;5967;48.944;9.240;2022-07-03T13:07:07;28.50;99.90
11820;DHT22;5967;48.944;9.240;2022-07-03T13:09:36;28.60;99.90
11820;DHT22;5967;48.944;9.240;2022-07-03T13:12:03;28.70;99.90
11820;DHT22;5967;48.944;9.240;2022-07-03T13:14:29;28.80;99.90
11820;DHT22;5967;48.944;9.240;2022-07-03T13:16:56;28.80;99.90
11820;DHT22;5967;48.944;9.240;2022-07-03T13:19:24;28.80;99.90
11820;DHT22;5967;48.944;9.240;2022-07-03T13:21:52;28.80;99.90
11820;DHT22;5967;48.944;9.240;2022-07-03T13:24:19;28.80;99.90
11820;DHT22;5967;48.944;9.240;2022-07-03T13:26:49;28.80;99.90
11820;DHT22;5967;48.944;9.240;2022-07-03T13:29:15;28.80;99.90
11820;DHT22;5967;48.944;9.240;2022-07-03T13:31:41;28.80;99.90
11820;DHT22;5967;48.944;9.240;2022-07-03T13:34:09;28.80;99.90
11820;DHT22;5967;48.944;9.240;2022-07-03T13:36:35;28.80;99.90
11820;DHT22;5967;48.944;9.240;2022-07-03T13:39:00;28.80;99.90
11820;DHT22;5967;48.944;9.240;2022-07-03T13:41:29;28.80;99.90
11820;DHT22;5967;48.944;9.240;2022-07-03T13:43:55;28.80;99.90
11820;DHT22;5967;48.944;9.240;2022-07-03T13:46:22;28.90;99.90
11820;DHT22;5967;48.944;9.240;2022-07-03T13:48:48;29.00;99.90
11820;DHT22;5967;48.944;9.240;2022-07-03T13:51:14;29.10;99.90
11820;DHT22;5967;48.944;9.240;2022-07-03T13:53:40;29.10;99.90
11820;DHT22;5967;48.944;9.240;2022-07-03T13:56:05;29.10;99.90
11820;DHT22;5967;48.944;9.240;2022-07-03T13:58:31;29.20;99.90
11820;DHT22;5967;48.944;9.240;2022-07-03T14:01:00;29.20;99.90
11820;DHT22;5967;48.944;9.240;2022-07-03T14:03:35;29.20;99.90
11820;DHT22;5967;48.944;9.240;2022-07-03T14:06:01;29.20;99.90
11820;DHT22;5967;48.944;9.240;2022-07-03T14:08:27;29.20;99.90
11820;DHT22;5967;48.944;9.240;2022-07-03T14:10:52;29.20;99.90
11820;DHT22;5967;48.944;9.240;2022-07-03T14:13:18;29.20;99.90
11820;DHT22;5967;48.944;9.240;2022-07-03T14:15:43;29.20;99.90
11820;DHT22;5967;48.944;9.240;2022-07-03T14:18:12;29.20;99.90
11820;DHT22;5967;48.944;9.240;2022-07-03T14:20:43;29.20;99.90
11820;DHT22;5967;48.944;9.240;2022-07-03T14:23:08;29.20;99.90
11820;DHT22;5967;48.944;9.240;2022-07-03T14:25:34;29.10;99.90
11820;DHT22;5967;48.944;9.240;2022-07-03T14:28:00;29.20;99.90
11820;DHT22;5967;48.944;9.240;2022-07-03T14:30:44;29.20;99.90
11820;DHT22;5967;48.944;9.240;2022-07-03T14:33:28;29.20;99.90
11820;DHT22;5967;48.944;9.240;2022-07-03T14:35:54;29.20;99.90
11820;DHT22;5967;48.944;9.240;2022-07-03T14:38:20;29.20;99.90
11820;DHT22;5967;48.944;9.240;2022-07-03T14:40:48;29.20;99.90
11820;DHT22;5967;48.944;9.240;2022-07-03T14:43:14;29.30;99.90
11820;DHT22;5967;48.944;9.240;2022-07-03T14:45:39;29.30;99.90
11820;DHT22;5967;48.944;9.240;2022-07-03T14:48:05;29.30;99.90
11820;DHT22;5967;48.944;9.240;2022-07-03T14:50:31;29.30;99.90
11820;DHT22;5967;48.944;9.240;2022-07-03T14:53:00;29.30;99.90
11820;DHT22;5967;48.944;9.240;2022-07-03T14:55:35;29.30;99.90
11820;DHT22;5967;48.944;9.240;2022-07-03T14:58:15;29.30;99.90
11820;DHT22;5967;48.944;9.240;2022-07-03T15:00:50;29.30;99.90
11820;DHT22;5967;48.944;9.240;2022-07-03T15:03:19;29.40;99.90
11820;DHT22;5967;48.944;9.240;2022-07-03T15:05:51;29.40;99.90
11820;DHT22;5967;48.944;9.240;2022-07-03T15:08:43;29.40;99.90
11820;DHT22;5967;48.944;9.240;2022-07-03T15:11:15;29.40;99.90
11820;DHT22;5967;48.944;9.240;2022-07-03T15:14:03;29.40;99.90
11820;DHT22;5967;48.944;9.240;2022-07-03T15:16:32;29.30;99.90
11820;DHT22;5967;48.944;9.240;2022-07-03T15:18:59;29.30;99.90
11820;DHT22;5967;48.944;9.240;2022-07-03T15:21:29;29.30;99.90
11820;DHT22;5967;48.944;9.240;2022-07-03T15:23:59;29.30;99.90
11820;DHT22;5967;48.944;9.240;2022-07-03T15:26:26;29.20;99.90
11820;DHT22;5967;48.944;9.240;2022-07-03T15:28:59;29.10;99.90
11820;DHT22;5967;48.944;9.240;2022-07-03T15:31:47;29.10;99.90
11820;DHT22;5967;48.944;9.240;2022-07-03T15:34:13;29.10;99.90
11820;DHT22;5967;48.944;9.240;2022-07-03T15:36:50;29.10;99.90
11820;DHT22;5967;48.944;9.240;2022-07-03T15:39:47;29.00;99.90
11820;DHT22;5967;48.944;9.240;2022-07-03T15:42:39;29.00;99.90
11820;DHT22;5967;48.944;9.240;2022-07-03T15:50:53;29.00;99.90
11820;DHT22;5967;48.944;9.240;2022-07-03T15:53:19;29.10;99.90
11820;DHT22;5967;48.944;9.240;2022-07-03T15:55:48;29.00;99.90
11820;DHT22;5967;48.944;9.240;2022-07-03T15:58:21;29.00;99.90
11820;DHT22;5967;48.944;9.240;2022-07-03T16:00:51;29.00;99.90
11820;DHT22;5967;48.944;9.240;2022-07-03T16:03:52;29.00;99.90
11820;DHT22;5967;48.944;9.240;2022-07-03T16:06:19;28.90;99.90
11820;DHT22;5967;48.944;9.240;2022-07-03T16:08:47;28.90;99.90
11820;DHT22;5967;48.944;9.240;2022-07-03T16:11:14;28.90;99.90
11820;DHT22;5967;48.944;9.240;2022-07-03T16:13:41;28.90;99.90
11820;DHT22;5967;48.944;9.240;2022-07-03T16:16:08;29.00;99.90
11820;DHT22;5967;48.944;9.240;2022-07-03T16:18:35;29.00;99.90
11820;DHT22;5967;48.944;9.240;2022-07-03T16:21:02;29.00;99.90
11820;DHT22;5967;48.944;9.240;2022-07-03T16:23:29;28.90;99.90
11820;DHT22;5967;48.944;9.240;2022-07-03T16:25:55;28.80;99.90
11820;DHT22;5967;48.944;9.240;2022-07-03T16:28:23;28.80;99.90
11820;DHT22;5967;48.944;9.240;2022-07-03T16:30:49;28.70;99.90
11820;DHT22;5967;48.944;9.240;2022-07-03T16:33:24;28.60;99.90
11820;DHT22;5967;48.944;9.240;2022-07-03T16:35:58;28.60;99.90
11820;DHT22;5967;48.944;9.240;2022-07-03T16:38:37;28.50;99.90
11820;DHT22;5967;48.944;9.240;2022-07-03T16:41:05;28.50;99.90
11820;DHT22;5967;48.944;9.240;2022-07-03T16:43:32;28.50;99.90
11820;DHT22;5967;48.944;9.240;2022-07-03T16:46:01;28.40;99.90
11820;DHT22;5967;48.944;9.240;2022-07-03T16:48:28;28.30;99.90
11820;DHT22;5967;48.944;9.240;2022-07-03T16:50:59;28.30;99.90
11820;DHT22;5967;48.944;9.240;2022-07-03T16:53:28;28.30;99.90
11820;DHT22;5967;48.944;9.240;2022-07-03T16:55:54;28.20;99.90
11820;DHT22;5967;48.944;9.240;2022-07-03T16:58:21;28.20;99.90
11820;DHT22;5967;48.944;9.240;2022-07-03T17:00:48;28.10;99.90
11820;DHT22;5967;48.944;9.240;2022-07-03T17:03:17;28.10;99.90
11820;DHT22;5967;48.944;9.240;2022-07-03T17:05:43;28.00;99.90
11820;DHT22;5967;48.944;9.240;2022-07-03T17:08:11;28.00;99.90
11820;DHT22;5967;48.944;9.240;2022-07-03T17:10:40;27.90;99.90
11820;DHT22;5967;48.944;9.240;2022-07-03T17:13:05;27.90;99.90
11820;DHT22;5967;48.944;9.240;2022-07-03T17:15:31;27.90;99.90
11820;DHT22;5967;48.944;9.240;2022-07-03T17:17:59;27.90;99.90